createdAt,value
2023-04-18T00:01:23.736Z,245.18
2023-04-18T00:03:51.028Z,242.38
2023-04-18T00:06:18.000Z,243.32
2023-04-18T00:08:44.663Z,247.73
2023-04-18T00:11:11.220Z,248.95
2023-04-18T00:13:39.390Z,249.25
2023-04-18T00:16:07.762Z,251.10
2023-04-18T00:18:34.582Z,253.65
2023-04-18T00:21:01.994Z,251.60
2023-04-18T00:23:30.202Z,251.80
2023-04-18T00:25:56.771Z,250.77
2023-04-18T00:28:23.342Z,251.90
2023-04-18T00:30:49.952Z,251.57
2023-04-18T00:33:16.927Z,249.63
2023-04-18T00:35:43.485Z,250.85
2023-04-18T00:38:10.473Z,250.85
2023-04-18T00:40:37.868Z,253.32
2023-04-18T00:43:04.498Z,251.80
2023-04-18T00:45:31.245Z,253.55
2023-04-18T00:47:57.877Z,254.80
2023-04-18T00:50:24.870Z,254.55
2023-04-18T00:52:52.139Z,254.93
2023-04-18T00:55:18.957Z,251.57
2023-04-18T00:57:45.992Z,258.92
2023-04-18T01:00:13.209Z,260.27
2023-04-18T01:02:40.623Z,263.25
2023-04-18T01:05:08.073Z,264.60
2023-04-18T01:07:37.445Z,264.05
2023-04-18T01:10:04.393Z,262.23
2023-04-18T01:12:31.387Z,251.25
2023-04-18T01:14:58.844Z,259.65
2023-04-18T01:17:25.407Z,262.58
2023-04-18T01:19:51.921Z,263.83
2023-04-18T01:22:19.991Z,265.00
2023-04-18T01:24:46.523Z,264.85
2023-04-18T01:27:13.888Z,259.30
2023-04-18T01:29:41.062Z,258.42
2023-04-18T01:32:07.720Z,260.23
2023-04-18T01:34:34.417Z,259.15
2023-04-18T01:37:00.960Z,255.55
2023-04-18T01:39:28.562Z,257.63
2023-04-18T01:41:55.188Z,252.45
2023-04-18T01:44:21.737Z,251.50
2023-04-18T01:46:48.337Z,254.18
2023-04-18T01:49:14.916Z,252.27
2023-04-18T01:51:42.166Z,257.00
2023-04-18T01:54:08.681Z,258.83
2023-04-18T01:56:35.241Z,259.65
2023-04-18T01:59:01.937Z,251.15
2023-04-18T02:01:28.522Z,250.15
2023-04-18T02:03:55.453Z,247.10
2023-04-18T02:06:22.169Z,248.45
2023-04-18T02:08:48.768Z,251.40
2023-04-18T02:11:15.336Z,248.30
2023-04-18T02:13:41.876Z,251.75
2023-04-18T02:16:12.985Z,252.10
2023-04-18T02:18:40.162Z,249.32
2023-04-18T02:21:07.247Z,253.90
2023-04-18T02:23:33.754Z,247.32
2023-04-18T02:26:00.317Z,251.68
2023-04-18T02:28:26.819Z,253.30
2023-04-18T02:30:53.410Z,249.63
2023-04-18T02:33:19.958Z,248.80
2023-04-18T02:35:46.483Z,248.35
2023-04-18T02:38:13.852Z,252.43
2023-04-18T02:40:40.415Z,249.50
2023-04-18T02:43:07.053Z,251.77
2023-04-18T02:45:33.659Z,251.48
2023-04-18T02:48:00.302Z,250.40
2023-04-18T02:50:27.208Z,249.18
2023-04-18T02:52:53.795Z,244.80
2023-04-18T02:55:21.955Z,244.80
2023-04-18T02:57:48.517Z,246.95
2023-04-18T03:00:15.279Z,247.25
2023-04-18T03:02:42.094Z,247.77
2023-04-18T03:05:08.985Z,248.02
2023-04-18T03:07:35.766Z,245.13
2023-04-18T03:10:02.429Z,248.57
2023-04-18T03:12:28.966Z,251.20
2023-04-18T03:14:55.503Z,245.20
2023-04-18T03:17:22.360Z,245.45
2023-04-18T03:19:49.023Z,246.23
2023-04-18T03:22:16.112Z,248.25
2023-04-18T03:24:42.743Z,255.60
2023-04-18T03:27:09.306Z,251.77
2023-04-18T03:29:35.923Z,247.30
2023-04-18T03:32:02.626Z,245.80
2023-04-18T03:34:29.715Z,241.98
2023-04-18T03:36:56.664Z,247.27
2023-04-18T03:39:23.228Z,245.80
2023-04-18T03:41:49.883Z,246.48
2023-04-18T03:44:16.655Z,240.32
2023-04-18T03:46:43.385Z,246.07
2023-04-18T03:49:09.991Z,249.73
2023-04-18T03:51:43.461Z,246.45
2023-04-18T03:54:10.187Z,251.77
2023-04-18T03:56:36.879Z,249.57
2023-04-18T03:59:03.448Z,247.57
2023-04-18T04:01:30.096Z,250.40
2023-04-18T04:03:56.734Z,245.65
2023-04-18T04:06:24.117Z,246.27
2023-04-18T04:08:50.644Z,246.45
2023-04-18T04:11:17.589Z,242.70
2023-04-18T04:13:44.158Z,246.32
2023-04-18T04:16:10.813Z,245.50
2023-04-18T04:18:37.447Z,243.90
2023-04-18T04:21:05.333Z,236.40
2023-04-18T04:23:33.132Z,243.27
2023-04-18T04:26:03.712Z,250.30
2023-04-18T04:28:31.615Z,249.13
2023-04-18T04:30:58.318Z,246.88
2023-04-18T04:33:28.529Z,247.18
2023-04-18T04:35:55.658Z,249.15
2023-04-18T04:38:25.024Z,248.68
2023-04-18T04:40:51.601Z,244.23
2023-04-18T04:43:20.523Z,245.25
2023-04-18T04:45:52.653Z,239.45
2023-04-18T04:48:20.318Z,245.30
2023-04-18T04:50:55.433Z,246.48
2023-04-18T04:53:22.976Z,254.73
2023-04-18T04:55:49.775Z,255.30
2023-04-18T04:58:16.352Z,253.48
2023-04-18T05:00:43.035Z,254.50
2023-04-18T05:03:10.786Z,254.32
2023-04-18T05:05:37.593Z,253.35
2023-04-18T05:08:04.560Z,251.57
2023-04-18T05:10:31.311Z,250.82
2023-04-18T05:12:57.979Z,251.07
2023-04-18T05:15:25.096Z,251.82
2023-04-18T05:17:51.719Z,249.70
2023-04-18T05:20:18.310Z,250.07
2023-04-18T05:22:44.934Z,249.20
2023-04-18T05:25:12.549Z,252.43
2023-04-18T05:27:39.484Z,251.50
2023-04-18T05:30:06.996Z,253.18
2023-04-18T05:32:33.685Z,253.80
2023-04-18T05:35:00.391Z,257.20
2023-04-18T05:37:27.023Z,254.70
2023-04-18T05:39:53.585Z,255.68
2023-04-18T05:42:20.135Z,253.43
2023-04-18T05:44:46.679Z,253.05
2023-04-18T05:47:13.284Z,253.88
2023-04-18T05:49:39.846Z,253.35
2023-04-18T05:52:06.411Z,253.45
2023-04-18T05:54:32.966Z,247.38
2023-04-18T05:57:00.907Z,251.65
2023-04-18T05:59:28.830Z,251.75
2023-04-18T06:01:55.514Z,245.40
2023-04-18T06:04:22.193Z,247.25
2023-04-18T06:06:48.798Z,245.10
2023-04-18T06:09:15.327Z,247.20
2023-04-18T06:11:41.851Z,247.35
2023-04-18T06:14:08.384Z,246.65
2023-04-18T06:16:37.221Z,243.43
2023-04-18T06:19:05.220Z,242.02
2023-04-18T06:21:32.169Z,243.50
2023-04-18T06:23:58.980Z,244.80
2023-04-18T06:26:25.567Z,246.82
2023-04-18T06:28:52.313Z,247.82
2023-04-18T06:31:19.054Z,245.73
2023-04-18T06:33:45.671Z,242.27
2023-04-18T06:36:12.248Z,239.40
2023-04-18T06:38:38.753Z,243.88
2023-04-18T06:41:05.267Z,239.50
2023-04-18T06:43:31.812Z,243.30
2023-04-18T06:45:59.201Z,244.85
2023-04-18T06:48:25.867Z,249.52
2023-04-18T06:50:52.458Z,252.85
2023-04-18T06:53:19.016Z,251.15
2023-04-18T06:55:45.817Z,250.98
2023-04-18T06:58:16.094Z,250.98
2023-04-18T07:00:43.373Z,248.20
2023-04-18T07:03:13.407Z,251.95
2023-04-18T07:05:40.775Z,251.55
2023-04-18T07:08:08.041Z,247.40
2023-04-18T07:10:34.662Z,247.57
2023-04-18T07:13:01.236Z,248.85
2023-04-18T07:15:27.871Z,243.85
2023-04-18T07:17:54.502Z,246.00
2023-04-18T07:20:21.155Z,243.90
2023-04-18T07:22:48.540Z,247.55
2023-04-18T07:25:15.060Z,248.70
2023-04-18T07:27:41.717Z,250.45
2023-04-18T07:30:09.056Z,248.13
2023-04-18T07:32:35.834Z,247.35
2023-04-18T07:35:04.165Z,248.98
2023-04-18T07:37:31.308Z,251.18
2023-04-18T07:39:57.826Z,251.68
2023-04-18T07:42:24.366Z,250.48
2023-04-18T07:44:51.046Z,250.48
2023-04-18T07:47:22.255Z,245.85
2023-04-18T07:49:49.117Z,244.10
2023-04-18T07:52:15.855Z,249.93
2023-04-18T07:54:42.436Z,245.20
2023-04-18T07:57:08.991Z,246.52
2023-04-18T07:59:36.023Z,245.75
2023-04-18T08:02:02.903Z,252.00
2023-04-18T08:04:30.491Z,252.57
2023-04-18T08:06:57.267Z,251.93
2023-04-18T08:09:24.913Z,252.45
2023-04-18T08:11:51.472Z,250.93
2023-04-18T08:14:17.979Z,251.50
2023-04-18T08:16:44.661Z,251.20
2023-04-18T08:19:11.486Z,251.45
2023-04-18T08:21:39.303Z,251.23
2023-04-18T08:24:06.177Z,250.40
2023-04-18T08:26:32.717Z,248.40
2023-04-18T08:28:59.294Z,246.57
2023-04-18T08:31:25.928Z,244.45
2023-04-18T08:33:52.562Z,247.25
2023-04-18T08:36:19.186Z,243.38
2023-04-18T08:38:46.722Z,239.25
2023-04-18T08:41:14.824Z,241.13
2023-04-18T08:43:41.473Z,239.30
2023-04-18T08:46:09.136Z,246.15
2023-04-18T08:48:36.788Z,242.30
2023-04-18T08:51:04.934Z,244.60
2023-04-18T08:53:33.911Z,249.13
2023-04-18T08:56:01.574Z,244.15
2023-04-18T08:58:28.225Z,238.57
2023-04-18T09:00:55.355Z,245.30
2023-04-18T09:03:42.134Z,235.57
2023-04-18T09:06:09.647Z,239.73
2023-04-18T09:08:36.212Z,241.68
2023-04-18T09:11:26.156Z,243.50
2023-04-18T09:13:53.415Z,247.23
2023-04-18T09:16:22.438Z,246.30
2023-04-18T09:19:13.150Z,246.27
2023-04-18T09:21:41.539Z,247.95
2023-04-18T09:24:24.151Z,244.73
2023-04-18T09:26:53.761Z,249.63
2023-04-18T09:29:23.822Z,250.43
2023-04-18T09:32:00.102Z,247.38
2023-04-18T09:34:28.198Z,248.70
2023-04-18T09:37:11.833Z,245.32
2023-04-18T09:39:39.973Z,247.82
2023-04-18T09:42:07.951Z,246.18
2023-04-18T09:44:34.604Z,249.15
2023-04-18T09:47:01.197Z,249.30
2023-04-18T09:49:28.354Z,245.07
2023-04-18T09:51:56.231Z,241.82
2023-04-18T09:54:25.020Z,244.45
2023-04-18T09:56:54.152Z,244.30
2023-04-18T09:59:42.771Z,246.40
2023-04-18T10:02:16.373Z,247.32
2023-04-18T10:07:11.408Z,250.73
2023-04-18T10:09:42.630Z,252.25
2023-04-18T10:12:09.544Z,254.73
2023-04-18T10:14:38.936Z,255.48
2023-04-18T10:17:06.382Z,253.98
2023-04-18T10:19:32.998Z,254.15
2023-04-18T10:22:01.048Z,254.82
2023-04-18T10:24:49.551Z,255.57
2023-04-18T10:27:17.751Z,254.98
2023-04-18T10:29:48.993Z,252.00
2023-04-18T10:32:19.983Z,249.18
2023-04-18T10:34:47.300Z,254.88
2023-04-18T10:37:14.282Z,249.30
2023-04-18T10:40:05.638Z,255.98
2023-04-18T10:42:47.464Z,254.98
2023-04-18T10:45:22.106Z,248.48
2023-04-18T10:47:49.002Z,248.68
2023-04-18T10:50:17.372Z,252.35
2023-04-18T10:52:44.874Z,254.75
2023-04-18T10:55:39.767Z,255.32
2023-04-18T10:58:06.476Z,255.48
2023-04-18T11:00:33.261Z,247.82
2023-04-18T11:03:00.637Z,248.85
2023-04-18T11:05:29.092Z,254.68
2023-04-18T11:07:55.748Z,253.68
2023-04-18T11:10:27.150Z,251.98
2023-04-18T11:12:55.010Z,255.18
2023-04-18T11:15:23.152Z,254.77
2023-04-18T11:18:01.022Z,253.20
2023-04-18T11:20:29.358Z,248.45
2023-04-18T11:22:58.704Z,247.20
2023-04-18T11:25:40.586Z,250.55
2023-04-18T11:28:07.245Z,246.25
2023-04-18T11:30:41.124Z,247.75
2023-04-18T11:33:11.882Z,253.93
2023-04-18T11:35:39.709Z,251.45
2023-04-18T11:38:07.556Z,244.60
2023-04-18T11:40:35.716Z,242.13
2023-04-18T11:43:03.775Z,246.95
2023-04-18T11:45:30.681Z,247.60
2023-04-18T11:47:58.682Z,245.07
2023-04-18T11:50:26.338Z,247.70
2023-04-18T11:52:54.369Z,246.70
2023-04-18T11:55:24.894Z,244.95
2023-04-18T11:57:53.632Z,246.07
2023-04-18T12:00:30.839Z,247.18
2023-04-18T12:02:59.156Z,244.43
2023-04-18T12:05:33.912Z,240.95
2023-04-18T12:08:11.413Z,240.40
2023-04-18T12:10:38.884Z,242.27
2023-04-18T12:13:09.012Z,241.88
2023-04-18T12:15:39.297Z,240.10
2023-04-18T12:18:08.474Z,238.52
2023-04-18T12:20:50.428Z,238.77
2023-04-18T12:23:34.321Z,239.27
2023-04-18T12:26:08.520Z,239.40
2023-04-18T12:28:35.749Z,238.57
2023-04-18T12:31:05.435Z,239.48
2023-04-18T12:33:31.980Z,236.80
2023-04-18T12:35:59.156Z,233.80
2023-04-18T12:38:25.693Z,235.07
2023-04-18T12:40:52.579Z,233.85
2023-04-18T12:43:19.712Z,235.27
2023-04-18T12:45:46.937Z,233.50
2023-04-18T12:48:14.000Z,238.35
2023-04-18T12:50:40.861Z,237.23
2023-04-18T12:53:07.619Z,236.70
2023-04-18T12:55:34.588Z,232.38
2023-04-18T12:58:01.157Z,235.60
2023-04-18T13:00:30.423Z,234.40
2023-04-18T13:02:58.024Z,230.23
2023-04-18T13:05:28.573Z,230.70
2023-04-18T13:08:08.512Z,231.90
2023-04-18T13:10:42.398Z,231.50
2023-04-18T13:13:08.939Z,234.50
2023-04-18T13:15:36.270Z,232.45
2023-04-18T13:18:06.220Z,233.35
2023-04-18T13:20:34.051Z,232.82
2023-04-18T13:23:02.626Z,233.73
2023-04-18T13:25:29.305Z,234.27
2023-04-18T13:27:57.488Z,233.25
2023-04-18T13:30:24.112Z,231.68
2023-04-18T13:32:50.864Z,230.23
2023-04-18T13:35:17.562Z,231.60
2023-04-18T13:37:44.131Z,233.55
2023-04-18T13:40:11.255Z,230.45
2023-04-18T13:42:39.305Z,231.77
2023-04-18T13:45:06.352Z,233.95
2023-04-18T13:47:32.936Z,229.90
2023-04-18T13:49:59.668Z,229.45
2023-04-18T13:52:26.341Z,233.00
2023-04-18T13:54:53.137Z,231.20
2023-04-18T13:57:19.898Z,230.90
2023-04-18T13:59:46.855Z,230.48
2023-04-18T14:02:13.712Z,228.18
2023-04-18T14:04:40.985Z,229.25
2023-04-18T14:07:07.993Z,226.73
2023-04-18T14:09:34.799Z,224.70
2023-04-18T14:12:02.106Z,224.35
2023-04-18T14:14:28.744Z,225.82
2023-04-18T14:16:55.319Z,227.90
2023-04-18T14:19:21.908Z,225.52
2023-04-18T14:21:48.570Z,223.35
2023-04-18T14:24:15.155Z,228.02
2023-04-18T14:26:41.809Z,227.45
2023-04-18T14:29:08.537Z,226.15
2023-04-18T14:31:35.327Z,224.63
2023-04-18T14:34:02.067Z,224.70
2023-04-18T14:36:28.672Z,225.18
2023-04-18T14:38:55.349Z,225.65
2023-04-18T14:41:21.957Z,221.77
2023-04-18T14:43:48.728Z,222.77
2023-04-18T14:46:19.017Z,226.73
2023-04-18T14:48:49.018Z,228.27
2023-04-18T14:51:16.572Z,227.73
2023-04-18T14:53:44.383Z,228.45
2023-04-18T14:56:11.218Z,229.05
2023-04-18T14:58:37.878Z,228.07
2023-04-18T15:01:05.624Z,225.32
2023-04-18T15:03:32.710Z,226.88
2023-04-18T15:05:59.732Z,226.95
2023-04-18T15:08:26.346Z,227.60
2023-04-18T15:10:52.895Z,227.43
2023-04-18T15:13:20.826Z,228.13
2023-04-18T15:15:55.083Z,225.98
2023-04-18T15:18:21.788Z,228.05
2023-04-18T15:20:48.519Z,229.90
2023-04-18T15:23:15.190Z,230.77
2023-04-18T15:25:42.669Z,229.95
2023-04-18T15:28:09.337Z,230.25
2023-04-18T15:30:36.347Z,228.68
2023-04-18T15:33:03.005Z,226.80
2023-04-18T15:35:29.601Z,225.02
2023-04-18T15:37:57.460Z,223.93
2023-04-18T15:40:24.424Z,222.23
2023-04-18T15:42:53.534Z,222.90
2023-04-18T15:45:20.960Z,221.68
2023-04-18T15:47:47.620Z,223.90
2023-04-18T15:50:16.014Z,226.07
2023-04-18T15:52:42.734Z,225.38
2023-04-18T15:55:11.854Z,225.65
2023-04-18T15:57:38.559Z,227.27
2023-04-18T16:00:11.697Z,225.65
2023-04-18T16:02:38.366Z,228.27
2023-04-18T16:05:05.446Z,224.63
2023-04-18T16:07:32.040Z,226.82
2023-04-18T16:09:58.553Z,229.32
2023-04-18T16:12:25.220Z,232.70
2023-04-18T16:14:51.790Z,231.23
2023-04-18T16:17:18.324Z,230.48
2023-04-18T16:19:44.914Z,232.15
2023-04-18T16:22:12.431Z,230.23
2023-04-18T16:24:40.865Z,229.68
2023-04-18T16:27:08.617Z,229.05
2023-04-18T16:29:35.438Z,227.82
2023-04-18T16:32:02.029Z,229.65
2023-04-18T16:34:28.593Z,228.68
2023-04-18T16:36:55.731Z,229.25
2023-04-18T16:39:22.344Z,229.43
2023-04-18T16:41:48.937Z,228.32
2023-04-18T16:44:15.816Z,227.85
2023-04-18T16:46:42.900Z,228.65
2023-04-18T16:49:09.506Z,227.75
2023-04-18T16:51:37.380Z,227.57
2023-04-18T16:54:05.010Z,225.18
2023-04-18T16:56:31.805Z,225.70
2023-04-18T16:58:58.758Z,225.63
2023-04-18T17:01:25.596Z,225.27
2023-04-18T17:03:52.316Z,224.90
2023-04-18T17:06:19.458Z,223.75
2023-04-18T17:08:46.192Z,224.20
2023-04-18T17:11:12.729Z,224.68
2023-04-18T17:13:39.295Z,223.88
2023-04-18T17:16:07.413Z,224.82
2023-04-18T17:18:34.007Z,223.38
2023-04-18T17:21:00.635Z,223.10
2023-04-18T17:23:27.217Z,223.73
2023-04-18T17:25:53.820Z,217.93
2023-04-18T17:28:21.292Z,213.98
2023-04-18T17:30:47.855Z,218.25
2023-04-18T17:33:14.450Z,220.32
2023-04-18T17:35:41.628Z,219.40
2023-04-18T17:38:10.493Z,220.13
2023-04-18T17:40:37.261Z,221.68
2023-04-18T17:43:03.797Z,218.70
2023-04-18T17:45:30.466Z,220.25
2023-04-18T17:47:58.292Z,223.63
2023-04-18T17:50:25.128Z,224.00
2023-04-18T17:52:51.672Z,224.30
2023-04-18T17:55:18.464Z,225.20
2023-04-18T17:57:45.294Z,224.70
2023-04-18T18:00:13.709Z,225.73
2023-04-18T18:02:42.826Z,226.05
2023-04-18T18:05:13.853Z,226.30
2023-04-18T18:07:43.142Z,226.73
2023-04-18T18:10:10.846Z,226.80
2023-04-18T18:12:38.184Z,226.52
2023-04-18T18:15:05.382Z,227.93
2023-04-18T18:17:31.985Z,228.75
2023-04-18T18:19:58.568Z,225.80
2023-04-18T18:22:26.146Z,228.63
2023-04-18T18:24:52.849Z,227.45
2023-04-18T18:27:20.387Z,228.10
2023-04-18T18:29:48.062Z,228.63
2023-04-18T18:32:14.684Z,228.82
2023-04-18T18:34:41.357Z,226.13
2023-04-18T18:37:07.998Z,227.13
2023-04-18T18:39:34.787Z,230.43
2023-04-18T18:42:02.459Z,230.25
2023-04-18T18:44:29.062Z,229.27
2023-04-18T18:46:56.714Z,228.98
2023-04-18T18:49:23.424Z,230.35
2023-04-18T18:51:50.058Z,232.00
2023-04-18T18:54:16.654Z,233.10
2023-04-18T18:56:44.256Z,230.57
2023-04-18T18:59:11.317Z,234.00
2023-04-18T19:01:39.058Z,233.15
2023-04-18T19:04:05.801Z,232.38
2023-04-18T19:06:33.894Z,230.35
2023-04-18T19:09:00.927Z,230.93
2023-04-18T19:11:28.921Z,229.40
2023-04-18T19:13:56.717Z,230.88
2023-04-18T19:16:23.356Z,231.93
2023-04-18T19:18:50.741Z,231.98
2023-04-18T19:21:17.804Z,232.00
2023-04-18T19:23:44.468Z,231.82
2023-04-18T19:26:11.046Z,232.57
2023-04-18T19:28:37.671Z,232.75
2023-04-18T19:31:04.504Z,233.40
2023-04-18T19:33:33.461Z,235.10
2023-04-18T19:36:00.064Z,233.75
2023-04-18T19:38:29.013Z,233.38
2023-04-18T19:40:56.651Z,232.52
2023-04-18T19:43:23.236Z,232.88
2023-04-18T19:45:50.927Z,229.15
2023-04-18T19:48:18.818Z,232.32
2023-04-18T19:50:46.217Z,231.55
2023-04-18T19:53:12.854Z,232.55
2023-04-18T19:55:39.705Z,231.45
2023-04-18T19:58:06.337Z,231.07
2023-04-18T20:00:34.312Z,231.52
2023-04-18T20:03:01.208Z,231.35
2023-04-18T20:05:27.958Z,231.77
2023-04-18T20:07:54.591Z,227.30
2023-04-18T20:10:22.372Z,227.27
2023-04-18T20:12:50.048Z,227.63
2023-04-18T20:15:16.978Z,228.35
2023-04-18T20:17:43.858Z,229.15
2023-04-18T20:20:11.477Z,228.90
2023-04-18T20:22:40.300Z,228.75
2023-04-18T20:25:07.190Z,228.60
2023-04-18T20:27:33.782Z,227.70
2023-04-18T20:30:00.409Z,228.15
2023-04-18T20:32:27.260Z,227.10
2023-04-18T20:34:53.955Z,227.32
2023-04-18T20:37:20.669Z,225.43
2023-04-18T20:39:47.637Z,222.23
2023-04-18T20:42:14.358Z,221.07
2023-04-18T20:44:43.226Z,222.23
2023-04-18T20:47:09.868Z,221.30
2023-04-18T20:49:36.513Z,221.38
2023-04-18T20:52:03.159Z,223.57
2023-04-18T20:54:29.763Z,223.55
2023-04-18T20:56:56.283Z,226.38
2023-04-18T20:59:22.816Z,225.57
2023-04-18T21:01:49.402Z,227.73
2023-04-18T21:04:16.543Z,228.18
2023-04-18T21:06:43.373Z,231.15
2023-04-18T21:09:09.957Z,225.50
2023-04-18T21:11:36.512Z,225.57
2023-04-18T21:14:06.075Z,227.75
2023-04-18T21:16:32.867Z,225.88
2023-04-18T21:18:59.482Z,227.02
2023-04-18T21:21:26.021Z,224.30
2023-04-18T21:23:52.589Z,223.70
2023-04-18T21:26:19.165Z,220.30
2023-04-18T21:29:12.098Z,222.25
2023-04-18T21:31:38.703Z,218.50
2023-04-18T21:34:05.587Z,219.63
2023-04-18T21:36:32.428Z,221.85
2023-04-18T21:39:01.042Z,229.15
2023-04-18T21:41:27.705Z,228.13
2023-04-18T21:43:54.396Z,228.05
2023-04-18T21:46:21.269Z,227.05
2023-04-18T21:48:48.499Z,234.63
2023-04-18T21:51:16.793Z,236.15
2023-04-18T21:53:43.531Z,237.80
2023-04-18T21:56:10.987Z,239.30
2023-04-18T21:58:37.633Z,240.75
2023-04-18T22:01:04.190Z,246.40
2023-04-18T22:03:31.669Z,247.38
2023-04-18T22:05:58.940Z,244.77
2023-04-18T22:08:26.273Z,245.55
2023-04-18T22:10:57.813Z,245.60
2023-04-18T22:13:25.988Z,251.65
2023-04-18T22:15:52.551Z,250.48
2023-04-18T22:18:19.320Z,250.57
2023-04-18T22:20:47.039Z,254.93
2023-04-18T22:23:14.157Z,253.60
2023-04-18T22:25:40.964Z,253.85
2023-04-18T22:28:07.976Z,252.38
2023-04-18T22:30:34.949Z,255.23
2023-04-18T22:33:01.685Z,257.17
2023-04-18T22:35:28.423Z,252.95
2023-04-18T22:37:55.786Z,253.43
2023-04-18T22:40:22.655Z,252.88
2023-04-18T22:42:51.849Z,252.30
2023-04-18T22:45:19.496Z,248.40
2023-04-18T22:47:46.741Z,245.07
2023-04-18T22:50:13.999Z,251.68
2023-04-18T22:52:40.857Z,250.02
2023-04-18T22:55:08.169Z,251.48
2023-04-18T22:57:34.783Z,250.93
2023-04-18T23:00:01.414Z,249.77
2023-04-18T23:02:28.212Z,248.75
2023-04-18T23:04:58.347Z,244.57
2023-04-18T23:07:25.050Z,249.85
2023-04-18T23:09:51.588Z,253.05
2023-04-18T23:12:18.147Z,248.50
2023-04-18T23:14:44.714Z,248.32
2023-04-18T23:17:11.284Z,258.33
2023-04-18T23:19:38.709Z,255.40
2023-04-18T23:22:05.515Z,248.85
2023-04-18T23:24:32.133Z,250.13
2023-04-18T23:26:58.700Z,246.50
2023-04-18T23:29:25.396Z,243.80
2023-04-18T23:31:51.923Z,247.38
2023-04-18T23:34:18.508Z,252.77
2023-04-18T23:36:45.239Z,257.65
2023-04-18T23:39:11.868Z,257.92
2023-04-18T23:41:38.419Z,258.05
2023-04-18T23:44:05.725Z,256.63
2023-04-18T23:46:33.358Z,256.75
2023-04-18T23:49:00.907Z,251.75
2023-04-18T23:51:28.005Z,252.77
2023-04-18T23:53:54.651Z,253.63
2023-04-18T23:56:21.827Z,252.27
2023-04-18T23:58:48.402Z,256.60
